createdAt,value
2022-08-17T00:00:43.956Z,21.48
2022-08-17T00:03:04.052Z,19.05
2022-08-17T00:05:34.763Z,13.50
2022-08-17T00:08:02.341Z,13.75
2022-08-17T00:10:29.652Z,13.23
2022-08-17T00:12:59.795Z,11.05
2022-08-17T00:15:27.097Z,19.23
2022-08-17T00:17:54.255Z,13.43
2022-08-17T00:20:23.394Z,17.35
2022-08-17T00:23:18.047Z,17.55
2022-08-17T00:25:46.993Z,16.42
2022-08-17T00:28:16.240Z,22.73
2022-08-17T00:30:50.883Z,18.35
2022-08-17T00:33:31.309Z,19.45
2022-08-17T00:35:59.606Z,14.95
2022-08-17T00:38:27.987Z,15.20
2022-08-17T00:40:59.520Z,15.75
2022-08-17T00:43:44.389Z,18.55
2022-08-17T00:46:17.647Z,15.10
2022-08-17T00:48:45.542Z,15.48
2022-08-17T00:51:41.012Z,17.83
2022-08-17T00:54:16.749Z,15.98
2022-08-17T00:56:48.973Z,18.15
2022-08-17T00:59:19.980Z,14.43
2022-08-17T01:01:49.000Z,19.30
2022-08-17T01:04:18.300Z,13.05
2022-08-17T01:06:47.055Z,16.45
2022-08-17T01:09:15.704Z,22.95
2022-08-17T01:11:44.024Z,14.43
2022-08-17T01:14:11.561Z,17.98
2022-08-17T01:16:39.295Z,17.08
2022-08-17T01:19:21.204Z,16.65
2022-08-17T01:22:03.261Z,14.73
2022-08-17T01:24:31.244Z,19.75
2022-08-17T01:27:01.253Z,18.55
2022-08-17T01:29:33.472Z,20.35
2022-08-17T01:32:03.792Z,17.55
2022-08-17T01:34:39.869Z,16.67
2022-08-17T01:37:12.192Z,16.35
2022-08-17T01:39:47.810Z,16.38
2022-08-17T01:42:23.555Z,19.10
2022-08-17T01:44:55.487Z,19.67
2022-08-17T01:47:23.207Z,20.13
2022-08-17T01:49:51.225Z,19.77
2022-08-17T01:52:18.669Z,26.10
2022-08-17T01:54:47.600Z,23.92
2022-08-17T01:57:14.753Z,24.95
2022-08-17T01:59:41.738Z,24.60
2022-08-17T02:02:08.891Z,23.00
2022-08-17T02:04:36.135Z,26.63
2022-08-17T02:07:03.124Z,21.65
2022-08-17T02:09:30.838Z,18.77
2022-08-17T02:12:38.358Z,23.63
2022-08-17T02:14:50.450Z,23.98
2022-08-17T02:17:17.836Z,19.95
2022-08-17T02:19:44.889Z,21.83
2022-08-17T02:22:12.275Z,20.10
2022-08-17T02:25:00.288Z,18.73
2022-08-17T02:27:27.040Z,18.50
2022-08-17T02:29:53.979Z,20.02
2022-08-17T02:32:28.511Z,20.30
2022-08-17T02:34:59.810Z,22.73
2022-08-17T02:37:28.384Z,16.25
2022-08-17T02:39:59.583Z,20.17
2022-08-17T02:42:31.574Z,18.88
2022-08-17T02:44:59.405Z,16.23
2022-08-17T02:47:27.006Z,19.17
2022-08-17T02:49:55.863Z,24.13
2022-08-17T02:52:43.745Z,14.23
2022-08-17T02:55:15.513Z,22.40
2022-08-17T02:57:42.745Z,16.52
2022-08-17T03:00:13.917Z,15.13
2022-08-17T03:02:43.469Z,19.00
2022-08-17T03:05:12.634Z,15.85
2022-08-17T03:07:39.756Z,18.10
2022-08-17T03:10:08.306Z,17.77
2022-08-17T03:12:38.844Z,20.85
2022-08-17T03:15:11.301Z,16.73
2022-08-17T03:17:38.523Z,23.20
2022-08-17T03:20:07.919Z,16.38
2022-08-17T03:22:41.457Z,18.67
2022-08-17T03:25:19.606Z,16.73
2022-08-17T03:27:50.309Z,15.20
2022-08-17T03:30:18.841Z,17.15
2022-08-17T03:32:50.538Z,19.10
2022-08-17T03:35:22.542Z,21.13
2022-08-17T03:37:51.445Z,20.00
2022-08-17T03:40:34.392Z,16.92
2022-08-17T03:43:16.384Z,19.20
2022-08-17T03:46:02.616Z,22.27
2022-08-17T03:48:48.342Z,20.15
2022-08-17T03:51:40.075Z,17.43
2022-08-17T03:54:27.045Z,20.08
2022-08-17T03:56:59.769Z,22.45
2022-08-17T03:59:26.770Z,20.42
2022-08-17T04:01:58.489Z,28.50
2022-08-17T04:04:27.609Z,28.70
2022-08-17T04:06:55.176Z,29.33
2022-08-17T04:09:22.310Z,35.90
2022-08-17T04:11:49.238Z,28.40
2022-08-17T04:14:16.310Z,37.15
2022-08-17T04:16:44.022Z,33.58
2022-08-17T04:19:11.121Z,35.20
2022-08-17T04:21:38.240Z,28.90
2022-08-17T04:24:05.700Z,31.73
2022-08-17T04:26:52.170Z,39.95
2022-08-17T04:29:20.393Z,32.15
2022-08-17T04:31:48.170Z,33.80
2022-08-17T04:34:15.959Z,44.53
2022-08-17T04:36:47.915Z,39.75
2022-08-17T04:39:17.690Z,45.00
2022-08-17T04:42:03.469Z,46.80
2022-08-17T04:44:37.867Z,38.72
2022-08-17T04:47:05.454Z,41.65
2022-08-17T04:49:32.724Z,40.65
2022-08-17T04:52:04.105Z,44.75
2022-08-17T04:54:31.727Z,46.28
2022-08-17T04:56:58.748Z,48.22
2022-08-17T04:59:25.726Z,41.53
2022-08-17T05:01:52.798Z,52.63
2022-08-17T05:04:33.601Z,53.20
2022-08-17T05:07:04.692Z,50.38
2022-08-17T05:09:31.929Z,51.92
2022-08-17T05:12:02.659Z,43.45
2022-08-17T05:14:32.880Z,48.17
2022-08-17T05:17:01.794Z,46.05
2022-08-17T05:19:33.998Z,42.58
2022-08-17T05:22:05.623Z,45.17
2022-08-17T05:24:42.478Z,42.17
2022-08-17T05:27:18.970Z,45.97
2022-08-17T05:29:46.301Z,43.05
2022-08-17T05:32:38.769Z,47.70
2022-08-17T05:35:01.908Z,44.03
2022-08-17T05:37:29.832Z,38.22
2022-08-17T05:39:56.896Z,40.55
2022-08-17T05:42:24.223Z,42.08
2022-08-17T05:44:51.276Z,45.42
2022-08-17T05:47:18.521Z,40.72
2022-08-17T05:49:48.862Z,42.25
2022-08-17T05:52:31.438Z,42.95
2022-08-17T05:55:16.567Z,36.70
2022-08-17T05:57:53.850Z,40.57
2022-08-17T06:00:32.054Z,39.38
2022-08-17T06:03:33.236Z,45.30
2022-08-17T06:06:32.067Z,50.13
2022-08-17T06:09:30.118Z,39.20
2022-08-17T06:12:19.941Z,36.00
2022-08-17T06:14:59.686Z,35.60
2022-08-17T06:17:28.572Z,34.58
2022-08-17T06:20:11.918Z,36.88
2022-08-17T06:22:46.360Z,37.00
2022-08-17T06:25:35.017Z,35.95
2022-08-17T06:28:14.814Z,29.15
2022-08-17T06:31:00.338Z,32.42
2022-08-17T06:33:35.353Z,30.75
2022-08-17T06:36:25.277Z,26.38
2022-08-17T06:39:02.662Z,30.15
2022-08-17T06:41:32.428Z,37.45
2022-08-17T06:44:04.058Z,20.38
2022-08-17T06:46:36.273Z,21.67
2022-08-17T06:49:14.311Z,27.50
2022-08-17T06:51:46.433Z,27.23
2022-08-17T06:54:25.450Z,25.08
2022-08-17T06:56:59.563Z,32.30
2022-08-17T06:59:54.513Z,24.85
2022-08-17T07:02:52.332Z,43.22
2022-08-17T07:05:38.816Z,55.67
2022-08-17T07:08:18.686Z,36.50
2022-08-17T07:10:55.419Z,26.75
2022-08-17T07:13:51.304Z,29.23
2022-08-17T07:16:35.987Z,123.80
2022-08-17T07:19:04.591Z,24.65
2022-08-17T07:21:41.045Z,22.23
2022-08-17T07:24:47.424Z,18.52
2022-08-17T07:27:31.108Z,20.85
2022-08-17T07:30:11.302Z,18.13
2022-08-17T07:33:00.874Z,16.77
2022-08-17T07:35:40.848Z,23.05
2022-08-17T07:38:25.603Z,21.65
2022-08-17T07:41:03.546Z,16.67
2022-08-17T07:43:39.896Z,13.75
2022-08-17T07:46:34.366Z,14.43
2022-08-17T07:49:03.262Z,14.03
2022-08-17T07:51:37.927Z,20.83
2022-08-17T07:54:29.975Z,20.85
2022-08-17T07:57:08.794Z,15.50
2022-08-17T07:59:38.424Z,17.50
2022-08-17T08:02:16.291Z,21.45
2022-08-17T08:05:10.117Z,19.15
2022-08-17T08:08:00.822Z,15.40
2022-08-17T08:10:35.660Z,16.33
2022-08-17T08:13:28.873Z,18.35
2022-08-17T08:16:26.203Z,16.02
2022-08-17T08:18:58.022Z,11.07
2022-08-17T08:21:51.440Z,14.40
2022-08-17T08:24:49.328Z,20.42
2022-08-17T08:27:27.592Z,17.80
2022-08-17T08:30:05.003Z,18.00
2022-08-17T08:32:50.412Z,13.82
2022-08-17T08:35:26.846Z,21.42
2022-08-17T08:38:09.009Z,18.80
2022-08-17T08:40:57.404Z,14.20
2022-08-17T08:43:27.558Z,22.77
2022-08-17T08:45:57.227Z,15.98
2022-08-17T08:48:55.794Z,12.60
2022-08-17T08:51:56.889Z,14.35
2022-08-17T08:54:42.024Z,13.10
2022-08-17T08:57:42.696Z,13.15
2022-08-17T09:00:23.085Z,11.70
2022-08-17T09:03:19.238Z,18.25
2022-08-17T09:06:28.740Z,11.98
2022-08-17T09:09:29.346Z,15.32
2022-08-17T09:12:11.374Z,9.75
2022-08-17T09:15:04.572Z,11.15
2022-08-17T09:18:14.604Z,16.08
2022-08-17T09:20:50.303Z,19.83
2022-08-17T09:23:59.588Z,9.52
2022-08-17T09:26:54.891Z,10.82
2022-08-17T09:29:27.219Z,8.48
2022-08-17T09:32:01.737Z,11.95
2022-08-17T09:34:50.814Z,13.98
2022-08-17T09:37:28.084Z,8.18
2022-08-17T09:40:10.296Z,10.02
2022-08-17T09:42:55.083Z,15.90
2022-08-17T09:45:27.962Z,9.95
2022-08-17T09:48:12.457Z,11.55
2022-08-17T09:53:31.863Z,7.97
2022-08-17T09:56:06.992Z,11.35
2022-08-17T09:58:52.462Z,10.93
2022-08-17T10:01:38.243Z,13.65
2022-08-17T10:04:30.711Z,13.35
2022-08-17T10:07:16.329Z,7.32
2022-08-17T10:09:51.339Z,9.60
2022-08-17T10:12:30.451Z,13.93
2022-08-17T10:15:23.618Z,11.65
2022-08-17T10:18:13.435Z,13.63
2022-08-17T10:21:27.203Z,8.95
2022-08-17T10:24:38.965Z,10.68
2022-08-17T10:27:11.592Z,11.52
2022-08-17T10:29:55.380Z,9.07
2022-08-17T10:32:35.446Z,10.48
2022-08-17T10:35:18.845Z,17.15
2022-08-17T10:37:51.796Z,13.18
2022-08-17T10:40:40.596Z,14.50
2022-08-17T10:44:37.175Z,6.72
2022-08-17T10:46:52.386Z,15.65
2022-08-17T10:49:21.163Z,13.40
2022-08-17T10:51:53.021Z,9.25
2022-08-17T10:54:32.872Z,14.25
2022-08-17T10:57:00.039Z,14.05
2022-08-17T10:59:36.203Z,13.35
2022-08-17T11:02:12.464Z,9.40
2022-08-17T11:04:54.501Z,10.65
2022-08-17T11:08:13.208Z,9.23
2022-08-17T11:10:53.405Z,15.70
2022-08-17T11:13:41.661Z,17.17
2022-08-17T11:16:11.309Z,10.30
2022-08-17T11:19:37.004Z,18.98
2022-08-17T11:22:34.124Z,18.85
2022-08-17T11:25:17.837Z,14.15
2022-08-17T11:27:53.854Z,16.67
2022-08-17T11:30:43.616Z,8.65
2022-08-17T11:33:36.799Z,17.20
2022-08-17T11:36:31.492Z,12.63
2022-08-17T11:39:13.186Z,10.63
2022-08-17T11:41:44.392Z,19.73
2022-08-17T11:44:15.515Z,11.85
2022-08-17T11:47:31.988Z,8.35
2022-08-17T11:50:38.942Z,9.98
2022-08-17T11:53:06.552Z,15.07
2022-08-17T11:55:38.259Z,15.20
2022-08-17T11:58:29.575Z,14.77
2022-08-17T12:00:59.439Z,8.35
2022-08-17T12:03:33.391Z,11.85
2022-08-17T12:06:17.642Z,6.85
2022-08-17T12:09:00.529Z,20.63
2022-08-17T12:11:55.101Z,13.52
2022-08-17T12:15:06.004Z,20.38
2022-08-17T12:17:40.434Z,12.50
2022-08-17T12:21:26.373Z,12.73
2022-08-17T12:24:17.911Z,18.67
2022-08-17T12:26:56.526Z,19.08
2022-08-17T12:29:35.711Z,12.88
2022-08-17T12:32:07.232Z,15.75
2022-08-17T12:34:42.807Z,14.15
2022-08-17T12:37:20.906Z,13.18
2022-08-17T12:39:57.735Z,10.45
2022-08-17T12:42:29.435Z,29.02
2022-08-17T12:44:56.891Z,14.75
2022-08-17T12:47:24.697Z,11.70
2022-08-17T12:50:29.874Z,12.93
2022-08-17T12:53:01.636Z,15.15
2022-08-17T12:55:32.740Z,11.02
2022-08-17T12:58:02.258Z,12.85
2022-08-17T13:00:47.741Z,23.38
2022-08-17T13:03:21.930Z,10.60
2022-08-17T13:06:06.394Z,13.70
2022-08-17T13:08:45.982Z,17.33
2022-08-17T13:11:18.908Z,18.38
2022-08-17T13:13:52.579Z,25.42
2022-08-17T13:16:24.493Z,12.07
2022-08-17T13:19:06.078Z,13.15
2022-08-17T13:21:34.315Z,8.35
2022-08-17T13:24:19.729Z,15.45
2022-08-17T13:26:50.947Z,15.68
2022-08-17T13:29:25.997Z,13.00
2022-08-17T13:32:04.241Z,12.15
2022-08-17T13:35:11.849Z,14.82
2022-08-17T13:37:32.660Z,15.35
2022-08-17T13:40:21.516Z,24.45
2022-08-17T13:42:52.593Z,20.40
2022-08-17T13:45:36.444Z,16.92
2022-08-17T13:48:10.913Z,13.68
2022-08-17T13:53:40.479Z,11.13
2022-08-17T13:56:37.104Z,20.20
2022-08-17T13:59:09.830Z,20.17
2022-08-17T14:01:53.423Z,14.10
2022-08-17T14:04:25.222Z,19.45
2022-08-17T14:07:09.772Z,15.75
2022-08-17T14:09:47.590Z,15.88
2022-08-17T14:12:17.681Z,17.90
2022-08-17T14:14:45.166Z,17.30
2022-08-17T14:17:12.843Z,13.23
2022-08-17T14:19:39.969Z,18.55
2022-08-17T14:22:11.678Z,29.75
2022-08-17T14:24:44.595Z,11.15
2022-08-17T14:27:12.198Z,14.48
2022-08-17T14:29:41.212Z,14.25
2022-08-17T14:32:24.372Z,14.00
2022-08-17T14:34:52.621Z,16.80
2022-08-17T14:37:21.163Z,18.80
2022-08-17T14:39:48.358Z,18.73
2022-08-17T14:42:15.623Z,12.82
2022-08-17T14:44:42.543Z,19.88
2022-08-17T14:47:15.933Z,10.52
2022-08-17T14:49:43.834Z,13.88
2022-08-17T14:52:19.491Z,11.48
2022-08-17T14:54:46.420Z,13.70
2022-08-17T14:57:24.612Z,15.75
2022-08-17T15:00:00.353Z,10.57
2022-08-17T15:02:29.359Z,17.95
2022-08-17T15:05:05.472Z,19.75
2022-08-17T15:07:32.624Z,12.90
2022-08-17T15:10:02.565Z,12.50
2022-08-17T15:12:33.742Z,11.95
2022-08-17T15:15:04.491Z,19.75
2022-08-17T15:17:44.929Z,14.65
2022-08-17T15:20:16.588Z,13.40
2022-08-17T15:22:45.141Z,9.10
2022-08-17T15:25:14.270Z,16.35
2022-08-17T15:27:41.739Z,12.80
2022-08-17T15:30:10.146Z,9.63
2022-08-17T15:32:40.662Z,11.82
2022-08-17T15:35:11.855Z,15.55
2022-08-17T15:37:40.465Z,12.10
2022-08-17T15:40:09.456Z,10.02
2022-08-17T15:42:40.485Z,17.00
2022-08-17T15:45:13.876Z,14.32
2022-08-17T15:47:41.127Z,10.40
2022-08-17T15:50:09.708Z,11.18
2022-08-17T15:52:40.247Z,8.68
2022-08-17T15:55:12.103Z,15.40
2022-08-17T15:57:39.442Z,10.57
2022-08-17T16:00:09.406Z,13.20
2022-08-17T16:03:44.794Z,12.52
2022-08-17T16:05:30.119Z,9.80
2022-08-17T16:07:58.732Z,13.73
2022-08-17T16:10:35.582Z,9.77
2022-08-17T16:13:04.457Z,12.38
2022-08-17T16:15:31.896Z,13.55
2022-08-17T16:17:59.795Z,10.07
2022-08-17T16:20:27.530Z,10.30
2022-08-17T16:22:55.245Z,12.98
2022-08-17T16:25:52.440Z,12.45
2022-08-17T16:28:16.847Z,12.68
2022-08-17T16:30:44.444Z,10.35
2022-08-17T16:33:12.823Z,9.40
2022-08-17T16:35:42.019Z,11.30
2022-08-17T16:38:09.671Z,8.63
2022-08-17T16:40:38.173Z,14.45
2022-08-17T16:43:10.688Z,13.80
2022-08-17T16:45:40.518Z,13.27
2022-08-17T16:48:09.497Z,9.18
2022-08-17T16:50:37.415Z,11.68
2022-08-17T16:53:10.810Z,8.02
2022-08-17T16:55:38.537Z,11.00
2022-08-17T16:58:06.830Z,9.60
2022-08-17T17:00:36.279Z,11.50
2022-08-17T17:03:19.490Z,12.00
2022-08-17T17:06:29.452Z,8.05
2022-08-17T17:09:00.957Z,9.70
2022-08-17T17:11:38.100Z,10.80
2022-08-17T17:14:34.442Z,10.65
2022-08-17T17:17:06.690Z,11.55
2022-08-17T17:19:42.951Z,11.30
2022-08-17T17:22:48.779Z,10.20
2022-08-17T17:25:29.702Z,11.48
2022-08-17T17:28:08.042Z,9.60
2022-08-17T17:31:10.245Z,11.35
2022-08-17T17:33:48.247Z,7.38
2022-08-17T17:36:24.276Z,9.65
2022-08-17T17:39:23.430Z,15.43
2022-08-17T17:41:57.483Z,7.85
2022-08-17T17:44:38.347Z,10.15
2022-08-17T17:47:05.846Z,12.40
2022-08-17T17:49:45.078Z,14.07
2022-08-17T17:52:37.926Z,12.07
2022-08-17T17:55:30.260Z,13.88
2022-08-17T17:58:09.451Z,12.55
2022-08-17T18:00:47.024Z,13.90
2022-08-17T18:04:03.164Z,14.10
2022-08-17T18:06:45.583Z,16.92
2022-08-17T18:09:54.042Z,11.85
2022-08-17T18:12:48.891Z,17.40
2022-08-17T18:15:35.704Z,20.92
2022-08-17T18:18:14.805Z,9.60
2022-08-17T18:20:53.441Z,11.75
2022-08-17T18:23:28.131Z,11.55
2022-08-17T18:25:57.199Z,11.77
2022-08-17T18:28:36.703Z,9.60
2022-08-17T18:31:03.664Z,10.20
2022-08-17T18:33:30.698Z,10.82
2022-08-17T18:35:58.908Z,13.05
2022-08-17T18:38:33.978Z,11.70
2022-08-17T18:41:19.638Z,9.60
2022-08-17T18:44:06.137Z,11.70
2022-08-17T18:46:37.725Z,10.38
2022-08-17T18:49:26.324Z,12.70
2022-08-17T18:52:21.523Z,8.68
2022-08-17T18:55:24.541Z,17.65
2022-08-17T18:57:56.945Z,11.10
2022-08-17T19:00:26.670Z,12.55
2022-08-17T19:03:15.445Z,9.90
2022-08-17T19:05:46.206Z,9.15
2022-08-17T19:08:23.141Z,11.57
2022-08-17T19:10:56.185Z,8.25
2022-08-17T19:13:38.543Z,23.20
2022-08-17T19:16:19.109Z,14.60
2022-08-17T19:18:56.289Z,10.77
2022-08-17T19:21:30.729Z,11.25
2022-08-17T19:24:06.443Z,15.10
2022-08-17T19:26:54.452Z,14.00
2022-08-17T19:29:41.339Z,9.43
2022-08-17T19:32:10.677Z,10.33
2022-08-17T19:34:39.307Z,12.70
2022-08-17T19:37:29.983Z,12.60
2022-08-17T19:40:51.570Z,13.15
2022-08-17T19:43:38.988Z,12.95
2022-08-17T19:46:26.203Z,11.80
2022-08-17T19:49:03.342Z,12.68
2022-08-17T19:52:10.226Z,14.20
2022-08-17T19:54:45.052Z,12.48
2022-08-17T19:57:12.003Z,17.30
2022-08-17T19:59:49.078Z,13.50
2022-08-17T20:02:42.316Z,15.30
2022-08-17T20:05:15.204Z,13.80
2022-08-17T20:08:00.957Z,13.57
2022-08-17T20:10:54.776Z,16.88
2022-08-17T20:13:49.805Z,20.50
2022-08-17T20:16:18.328Z,11.00
2022-08-17T20:19:07.267Z,15.10
2022-08-17T20:21:34.129Z,15.40
2022-08-17T20:24:20.346Z,11.65
2022-08-17T20:27:09.788Z,21.98
2022-08-17T20:29:55.307Z,16.75
2022-08-17T20:32:35.655Z,17.37
2022-08-17T20:35:09.793Z,14.45
2022-08-17T20:37:43.254Z,16.15
2022-08-17T20:40:10.207Z,12.77
2022-08-17T20:42:37.706Z,17.30
2022-08-17T20:45:26.275Z,14.38
2022-08-17T20:48:30.563Z,16.75
2022-08-17T20:50:56.279Z,19.13
2022-08-17T20:53:45.128Z,17.50
2022-08-17T20:56:44.156Z,24.33
2022-08-17T20:59:27.625Z,13.40
2022-08-17T21:02:17.698Z,17.35
2022-08-17T21:04:48.726Z,16.73
2022-08-17T21:07:42.621Z,19.38
2022-08-17T21:10:14.043Z,15.73
2022-08-17T21:13:02.719Z,14.02
2022-08-17T21:15:56.946Z,23.52
2022-08-17T21:18:52.836Z,18.20
2022-08-17T21:21:59.178Z,13.03
2022-08-17T21:25:00.211Z,15.75
2022-08-17T21:27:42.350Z,12.63
2022-08-17T21:30:10.225Z,14.07
2022-08-17T21:32:42.045Z,19.88
2022-08-17T21:35:12.496Z,22.13
2022-08-17T21:37:44.658Z,25.60
2022-08-17T21:40:11.610Z,17.77
2022-08-17T21:42:46.762Z,14.73
2022-08-17T21:45:27.371Z,16.38
2022-08-17T21:48:17.368Z,18.42
2022-08-17T21:50:57.340Z,21.70
2022-08-17T21:53:32.863Z,16.15
2022-08-17T21:56:00.886Z,17.30
2022-08-17T21:58:32.082Z,16.42
2022-08-17T22:01:23.959Z,20.92
2022-08-17T22:04:04.104Z,20.45
2022-08-17T22:06:34.299Z,14.95
2022-08-17T22:09:09.407Z,14.43
2022-08-17T22:11:56.308Z,15.20
2022-08-17T22:14:27.316Z,21.80
2022-08-17T22:17:41.509Z,13.73
2022-08-17T22:20:14.573Z,13.45
2022-08-17T22:23:21.830Z,15.70
2022-08-17T22:26:09.588Z,19.45
2022-08-17T22:28:47.006Z,15.05
2022-08-17T22:31:29.372Z,14.45
2022-08-17T22:34:02.235Z,14.75
2022-08-17T22:36:41.323Z,13.93
2022-08-17T22:39:11.057Z,13.40
2022-08-17T22:41:54.028Z,13.88
2022-08-17T22:44:37.837Z,12.43
2022-08-17T22:47:24.156Z,16.05
2022-08-17T22:50:03.840Z,15.77
2022-08-17T22:53:00.490Z,17.00
2022-08-17T22:55:51.128Z,14.05
2022-08-17T22:58:40.612Z,17.08
2022-08-17T23:01:26.348Z,15.25
2022-08-17T23:04:01.524Z,11.35
2022-08-17T23:06:29.941Z,19.20
2022-08-17T23:08:58.136Z,18.25
2022-08-17T23:11:36.764Z,17.35
2022-08-17T23:14:19.270Z,17.52
2022-08-17T23:16:47.420Z,20.83
2022-08-17T23:19:19.030Z,16.33
2022-08-17T23:21:46.896Z,13.18
2022-08-17T23:24:26.095Z,13.00
2022-08-17T23:26:57.161Z,19.75
2022-08-17T23:29:25.717Z,20.50
2022-08-17T23:31:52.923Z,15.80
2022-08-17T23:34:19.956Z,17.45
2022-08-17T23:36:52.622Z,18.15
2022-08-17T23:39:24.365Z,18.52
2022-08-17T23:41:53.610Z,20.08
2022-08-17T23:44:24.171Z,26.42
2022-08-17T23:46:51.905Z,24.92
2022-08-17T23:49:19.369Z,19.65
2022-08-17T23:51:49.005Z,17.65
2022-08-17T23:54:20.521Z,28.70
2022-08-17T23:56:47.712Z,24.80
2022-08-17T23:59:20.658Z,27.13
